Time;durP1;ratioP1;P1;durP2;ratioP2;P2;SDS_P1;SDS_P2;PMS_P1;PMS_P2;Temp;Humidity;BMP_temperature;BMP_pressure;BME280_temperature;BME280_humidity;BME280_pressure;Samples;Min_cycle;Max_cycle;Signal;HPM_P1;HPM_P2
2023/04/12 00:02:07;;;;;;;7.80;1.73;;;;;;;;;;5018193;28;20037;-81
2023/04/12 00:04:33;;;;;;;4.68;1.50;;;;;;;;;;5016344;28;20037;-81
2023/04/12 00:06:59;;;;;;;12.30;1.58;;;;;;;;;;5016547;28;20021;-82
2023/04/12 00:09:29;;;;;;;3.60;1.40;;;;;;;;;;5018902;28;20026;-81
2023/04/12 00:11:57;;;;;;;7.80;1.33;;;;;;;;;;5015179;28;20045;-81
2023/04/12 00:14:24;;;;;;;8.63;1.52;;;;;;;;;;5017244;28;20026;-82
2023/04/12 00:16:49;;;;;;;10.10;1.30;;;;;;;;;;5016101;28;20031;-82
2023/04/12 00:19:15;;;;;;;2.75;1.13;;;;;;;;;;5034079;28;20042;-81
2023/04/12 00:21:41;;;;;;;3.90;1.42;;;;;;;;;;5032238;28;20021;-79
2023/04/12 00:24:07;;;;;;;4.22;1.30;;;;;;;;;;5040901;28;20112;-82
2023/04/12 00:26:32;;;;;;;1.23;1.10;;;;;;;;;;5022041;28;20014;-81
2023/04/12 00:28:57;;;;;;;1.88;1.10;;;;;;;;;;5012029;28;20441;-82
2023/04/12 00:31:23;;;;;;;4.00;1.30;;;;;;;;;;5019365;28;20022;-82
2023/04/12 00:33:48;;;;;;;2.42;1.35;;;;;;;;;;5018976;28;20074;-82
2023/04/12 00:36:14;;;;;;;2.08;0.90;;;;;;;;;;5015599;28;20061;-82
2023/04/12 00:38:41;;;;;;;7.47;1.50;;;;;;;;;;5025157;28;20037;-83
2023/04/12 00:41:35;;;;;;;4.90;1.45;;;;;;;;;;5024191;28;20026;-82
2023/04/12 00:44:00;;;;;;;2.15;1.50;;;;;;;;;;5023721;28;20029;-84
2023/04/12 00:46:28;;;;;;;3.28;1.30;;;;;;;;;;5020915;28;20025;-84
2023/04/12 00:48:55;;;;;;;6.40;1.95;;;;;;;;;;5025306;28;20025;-85
2023/04/12 00:51:21;;;;;;;4.38;1.10;;;;;;;;;;5019116;28;20228;-86
2023/04/12 00:53:47;;;;;;;4.93;1.50;;;;;;;;;;5021372;28;20053;-83
2023/04/12 00:56:13;;;;;;;8.93;2.05;;;;;;;;;;5028870;28;20033;-86
2023/04/12 00:58:38;;;;;;;7.38;1.63;;;;;;;;;;5023178;28;20029;-86
2023/04/12 01:01:04;;;;;;;3.78;1.98;;;;;;;;;;5019527;28;20394;-84
2023/04/12 01:03:29;;;;;;;2.53;1.75;;;;;;;;;;5019892;28;20569;-84
2023/04/12 01:06:12;;;;;;;5.93;1.73;;;;;;;;;;5020862;28;20030;-84
2023/04/12 01:08:55;;;;;;;3.50;1.63;;;;;;;;;;5020154;28;20041;-84
2023/04/12 01:11:31;;;;;;;1.92;1.70;;;;;;;;;;5035297;28;20026;-84
2023/04/12 01:14:08;;;;;;;7.07;2.20;;;;;;;;;;5021033;28;20025;-86
2023/04/12 01:16:49;;;;;;;5.20;1.95;;;;;;;;;;5025831;28;20026;-86
2023/04/12 01:19:30;;;;;;;2.75;1.92;;;;;;;;;;5024777;28;20539;-85
2023/04/12 01:22:10;;;;;;;7.45;2.35;;;;;;;;;;5015548;28;20030;-85
2023/04/12 01:24:49;;;;;;;8.20;3.13;;;;;;;;;;5015354;28;20478;-85
2023/04/12 01:27:32;;;;;;;9.90;4.30;;;;;;;;;;5018038;28;20022;-84
2023/04/12 01:30:01;;;;;;;8.23;4.10;;;;;;;;;;5018500;28;20482;-85
2023/04/12 01:32:31;;;;;;;6.18;3.03;;;;;;;;;;5018373;28;20040;-84
2023/04/12 01:34:58;;;;;;;6.97;2.92;;;;;;;;;;5010677;28;20057;-85
2023/04/12 01:37:24;;;;;;;6.40;2.55;;;;;;;;;;5021875;28;20022;-85
2023/04/12 01:39:49;;;;;;;5.30;2.55;;;;;;;;;;5018421;28;20057;-84
2023/04/12 01:42:21;;;;;;;2.45;1.70;;;;;;;;;;5015448;28;20026;-85
2023/04/12 01:44:46;;;;;;;2.28;1.80;;;;;;;;;;5014743;28;20030;-85
2023/04/12 01:47:12;;;;;;;2.90;1.90;;;;;;;;;;5013964;28;20109;-85
2023/04/12 01:49:55;;;;;;;4.43;1.92;;;;;;;;;;5035001;28;20068;-84
2023/04/12 01:52:24;;;;;;;3.85;2.05;;;;;;;;;;5036375;28;20056;-84
2023/04/12 01:54:56;;;;;;;3.20;1.73;;;;;;;;;;5036537;28;20018;-84
2023/04/12 01:57:22;;;;;;;4.82;1.95;;;;;;;;;;5023829;28;20022;-85
2023/04/12 01:59:50;;;;;;;3.33;2.00;;;;;;;;;;5027157;28;20124;-85
2023/04/12 02:02:16;;;;;;;7.20;1.73;;;;;;;;;;5011033;28;20018;-85
2023/04/12 02:04:42;;;;;;;7.63;1.55;;;;;;;;;;5020703;28;20117;-86
2023/04/12 02:07:08;;;;;;;6.22;1.83;;;;;;;;;;5018417;28;20046;-85
2023/04/12 02:09:37;;;;;;;2.00;1.38;;;;;;;;;;5018464;28;20093;-84
2023/04/12 02:12:03;;;;;;;4.65;1.88;;;;;;;;;;5013524;28;20022;-85
2023/04/12 02:14:30;;;;;;;3.42;1.48;;;;;;;;;;5016634;28;20093;-85
2023/04/12 02:16:57;;;;;;;5.40;2.00;;;;;;;;;;5016101;28;20018;-85
2023/04/12 02:19:22;;;;;;;5.50;2.10;;;;;;;;;;5021698;28;20025;-85
2023/04/12 02:21:48;;;;;;;2.85;1.60;;;;;;;;;;5017031;28;20589;-86
2023/04/12 02:24:14;;;;;;;3.42;1.52;;;;;;;;;;5012044;28;20121;-86
2023/04/12 02:26:40;;;;;;;4.30;2.05;;;;;;;;;;5017377;28;20057;-85
2023/04/12 02:29:09;;;;;;;6.53;1.83;;;;;;;;;;5015521;28;20033;-85
2023/04/12 02:31:35;;;;;;;4.15;1.70;;;;;;;;;;5014217;28;20076;-85
2023/04/12 02:34:01;;;;;;;6.28;1.83;;;;;;;;;;5015287;28;20448;-85
2023/04/12 02:36:27;;;;;;;5.18;1.80;;;;;;;;;;5014776;28;20030;-85
2023/04/12 02:38:53;;;;;;;2.72;1.73;;;;;;;;;;5023663;28;20022;-85
2023/04/12 02:41:19;;;;;;;7.30;1.65;;;;;;;;;;5015709;28;20136;-85
2023/04/12 02:43:45;;;;;;;4.22;1.48;;;;;;;;;;5013975;28;20468;-84
2023/04/12 02:46:14;;;;;;;1.85;1.50;;;;;;;;;;5015207;28;20053;-85
2023/04/12 02:48:40;;;;;;;2.70;1.60;;;;;;;;;;5014449;28;20025;-85
2023/04/12 02:51:05;;;;;;;4.00;1.77;;;;;;;;;;5014260;28;20371;-85
2023/04/12 02:53:31;;;;;;;8.27;2.17;;;;;;;;;;5020480;28;20028;-85
2023/04/12 02:56:00;;;;;;;3.20;1.85;;;;;;;;;;5017622;28;20101;-84
2023/04/12 02:58:26;;;;;;;3.83;1.50;;;;;;;;;;5014091;28;20134;-85
2023/04/12 03:00:51;;;;;;;4.13;1.75;;;;;;;;;;5009979;28;20056;-86
2023/04/12 03:03:17;;;;;;;4.85;1.90;;;;;;;;;;5015718;28;20026;-85
2023/04/12 03:05:46;;;;;;;3.83;2.10;;;;;;;;;;5013565;28;20053;-85
2023/04/12 03:08:11;;;;;;;3.30;1.50;;;;;;;;;;5021043;28;20073;-85
2023/04/12 03:10:37;;;;;;;4.13;1.60;;;;;;;;;;5014841;28;20482;-86
2023/04/12 03:13:03;;;;;;;7.78;1.90;;;;;;;;;;5013723;28;20026;-85
2023/04/12 03:15:29;;;;;;;3.85;3.05;;;;;;;;;;5014550;28;20029;-85
2023/04/12 03:17:54;;;;;;;4.88;1.63;;;;;;;;;;5015227;28;20025;-84
2023/04/12 03:20:23;;;;;;;3.38;1.48;;;;;;;;;;5011334;28;20592;-85
2023/04/12 03:22:49;;;;;;;2.17;1.73;;;;;;;;;;5017872;28;20080;-85
2023/04/12 03:25:16;;;;;;;5.82;1.63;;;;;;;;;;5014539;28;20029;-85
2023/04/12 03:27:42;;;;;;;5.65;2.10;;;;;;;;;;5015256;28;20022;-84
2023/04/12 03:30:10;;;;;;;4.28;1.90;;;;;;;;;;5014886;28;20026;-85
2023/04/12 03:32:36;;;;;;;1.92;1.48;;;;;;;;;;5023148;28;20028;-86
2023/04/12 03:35:02;;;;;;;3.67;2.00;;;;;;;;;;5013136;28;20481;-86
2023/04/12 03:37:27;;;;;;;4.35;1.88;;;;;;;;;;5009297;28;20018;-85
2023/04/12 03:39:53;;;;;;;5.47;1.88;;;;;;;;;;5014458;28;20033;-85
2023/04/12 03:42:18;;;;;;;3.00;2.17;;;;;;;;;;5017895;28;20022;-85
2023/04/12 03:44:43;;;;;;;7.13;2.13;;;;;;;;;;5013967;28;20162;-84
2023/04/12 03:47:10;;;;;;;6.38;1.90;;;;;;;;;;5017003;28;20573;-86
2023/04/12 03:49:37;;;;;;;4.38;2.20;;;;;;;;;;5011349;28;20030;-86
2023/04/12 03:52:04;;;;;;;4.85;2.00;;;;;;;;;;5012514;28;20026;-84
2023/04/12 03:54:29;;;;;;;2.97;2.20;;;;;;;;;;5010483;28;20033;-85
2023/04/12 03:56:55;;;;;;;4.32;2.17;;;;;;;;;;5015726;28;20018;-84
2023/04/12 03:59:21;;;;;;;5.82;2.70;;;;;;;;;;5012568;28;20485;-86
2023/04/12 04:01:46;;;;;;;4.75;1.98;;;;;;;;;;5009136;28;20067;-86
2023/04/12 04:04:11;;;;;;;8.43;2.25;;;;;;;;;;5015955;28;20040;-85
2023/04/12 04:06:37;;;;;;;3.72;2.13;;;;;;;;;;5009609;28;20080;-83
2023/04/12 04:09:03;;;;;;;4.55;2.30;;;;;;;;;;5010801;28;20549;-85
2023/04/12 04:11:28;;;;;;;3.42;2.35;;;;;;;;;;5012811;28;20112;-86
2023/04/12 04:13:53;;;;;;;3.83;1.92;;;;;;;;;;5012424;28;20029;-85
2023/04/12 04:16:19;;;;;;;4.70;2.17;;;;;;;;;;5021997;28;20026;-86
2023/04/12 04:18:44;;;;;;;3.28;2.17;;;;;;;;;;5016299;28;20036;-85
2023/04/12 04:21:10;;;;;;;4.20;2.60;;;;;;;;;;5017839;28;20025;-86
2023/04/12 04:23:38;;;;;;;5.05;2.03;;;;;;;;;;5016853;28;20040;-86
2023/04/12 04:26:09;;;;;;;6.95;2.20;;;;;;;;;;5016386;28;20511;-85
2023/04/12 04:29:08;;;;;;;6.00;2.33;;;;;;;;;;5018841;28;20087;-86
2023/04/12 04:31:35;;;;;;;5.10;2.35;;;;;;;;;;5015244;28;20025;-85
2023/04/12 04:39:56;;;;;;;3.78;1.75;;;;;;;;;;5278477;23;20299;-88
2023/04/12 04:42:23;;;;;;;3.40;2.03;;;;;;;;;;5036117;28;20025;-86
2023/04/12 04:45:02;;;;;;;3.53;2.10;;;;;;;;;;5024340;28;20025;-86
2023/04/12 04:52:41;;;;;;;1.73;1.63;;;;;;;;;;5061803;28;20053;-88
2023/04/12 04:55:07;;;;;;;5.70;1.52;;;;;;;;;;5040475;28;20082;-88
2023/04/12 04:57:32;;;;;;;2.67;1.95;;;;;;;;;;5037248;28;20040;-88
2023/04/12 04:59:58;;;;;;;3.28;1.48;;;;;;;;;;5018435;28;20022;-88
2023/04/12 05:02:24;;;;;;;3.38;1.92;;;;;;;;;;5020072;28;20294;-88
2023/04/12 05:04:50;;;;;;;1.92;1.52;;;;;;;;;;5016433;28;20037;-87
2023/04/12 05:07:15;;;;;;;8.82;2.10;;;;;;;;;;5019751;28;20366;-87
2023/04/12 05:09:40;;;;;;;4.20;1.90;;;;;;;;;;5019836;28;20478;-86
2023/04/12 05:12:06;;;;;;;3.22;1.80;;;;;;;;;;5017867;28;20032;-89
2023/04/12 05:14:31;;;;;;;4.82;2.28;;;;;;;;;;5018440;28;20087;-88
2023/04/12 05:16:57;;;;;;;1.80;1.70;;;;;;;;;;5020978;28;20025;-87
2023/04/12 05:19:22;;;;;;;7.38;2.42;;;;;;;;;;5016623;28;20022;-87
2023/04/12 05:21:47;;;;;;;4.30;2.05;;;;;;;;;;5015828;28;20114;-88
2023/04/12 05:24:13;;;;;;;2.47;1.60;;;;;;;;;;5023383;28;20022;-87
2023/04/12 05:26:38;;;;;;;2.13;1.90;;;;;;;;;;5016154;28;20068;-88
2023/04/12 05:29:05;;;;;;;4.18;2.30;;;;;;;;;;5017424;28;20575;-87
2023/04/12 05:31:31;;;;;;;2.70;1.85;;;;;;;;;;5017088;28;20861;-86
2023/04/12 05:33:56;;;;;;;5.18;2.13;;;;;;;;;;5014829;28;20069;-87
2023/04/12 05:36:21;;;;;;;3.60;2.17;;;;;;;;;;5016156;28;20030;-84
2023/04/12 05:38:47;;;;;;;6.40;2.20;;;;;;;;;;5019781;28;20033;-85
2023/04/12 05:41:12;;;;;;;5.78;1.92;;;;;;;;;;5016916;28;20034;-84
2023/04/12 05:43:38;;;;;;;4.68;2.00;;;;;;;;;;5032110;28;20037;-84
2023/04/12 05:46:06;;;;;;;4.72;2.13;;;;;;;;;;5018867;28;20032;-85
2023/04/12 05:48:32;;;;;;;4.72;2.35;;;;;;;;;;5025001;28;20036;-85
2023/04/12 05:50:57;;;;;;;4.47;2.40;;;;;;;;;;5019185;28;20049;-86
2023/04/12 05:53:22;;;;;;;3.88;2.05;;;;;;;;;;5017699;28;20061;-85
2023/04/12 05:55:48;;;;;;;12.73;2.22;;;;;;;;;;5013405;28;20101;-85
2023/04/12 05:58:13;;;;;;;5.40;2.40;;;;;;;;;;5015860;28;20038;-87
2023/04/12 06:00:40;;;;;;;3.38;1.95;;;;;;;;;;5012364;28;20109;-87
2023/04/12 06:03:08;;;;;;;8.05;1.92;;;;;;;;;;5014349;28;20022;-85
2023/04/12 06:05:33;;;;;;;3.35;2.33;;;;;;;;;;5016349;28;20034;-86
2023/04/12 06:07:59;;;;;;;2.88;1.95;;;;;;;;;;5014914;28;20029;-86
2023/04/12 06:10:25;;;;;;;2.90;2.05;;;;;;;;;;5012894;28;20034;-84
2023/04/12 06:12:50;;;;;;;3.78;1.67;;;;;;;;;;5009037;28;20222;-87
2023/04/12 06:15:16;;;;;;;1.85;1.73;;;;;;;;;;5015552;28;20021;-86
2023/04/12 06:17:41;;;;;;;3.67;2.17;;;;;;;;;;5015524;28;20041;-86
2023/04/12 06:20:08;;;;;;;4.93;2.30;;;;;;;;;;5014684;28;20040;-85
2023/04/12 06:22:34;;;;;;;3.08;2.05;;;;;;;;;;5015796;28;20045;-85
2023/04/12 06:24:59;;;;;;;2.75;1.98;;;;;;;;;;5017885;28;20026;-86
2023/04/12 06:27:25;;;;;;;5.22;2.03;;;;;;;;;;5023925;28;20033;-85
2023/04/12 06:29:51;;;;;;;5.38;1.98;;;;;;;;;;5016983;28;20025;-87
2023/04/12 06:32:16;;;;;;;2.35;2.10;;;;;;;;;;5017650;28;20036;-85
2023/04/12 06:34:42;;;;;;;4.72;1.75;;;;;;;;;;5017249;28;20075;-85
2023/04/12 06:37:08;;;;;;;1.50;1.33;;;;;;;;;;5012145;28;20025;-86
2023/04/12 06:39:33;;;;;;;2.55;1.67;;;;;;;;;;5012252;28;20037;-86
2023/04/12 06:41:58;;;;;;;4.57;1.83;;;;;;;;;;5020240;28;20030;-87
2023/04/12 06:44:26;;;;;;;6.22;2.13;;;;;;;;;;5017587;28;20030;-86
2023/04/12 06:46:53;;;;;;;1.98;1.80;;;;;;;;;;5017475;28;20041;-86
2023/04/12 06:49:19;;;;;;;1.70;1.60;;;;;;;;;;5019155;28;20030;-86
2023/04/12 06:51:44;;;;;;;4.80;1.90;;;;;;;;;;5033867;28;20061;-85
2023/04/12 06:54:11;;;;;;;2.55;1.90;;;;;;;;;;5023817;28;20029;-85
2023/04/12 06:56:37;;;;;;;3.78;1.65;;;;;;;;;;5019475;28;20022;-85
2023/04/12 06:59:02;;;;;;;5.68;1.67;;;;;;;;;;5017585;28;20037;-84
2023/04/12 07:01:28;;;;;;;3.10;1.92;;;;;;;;;;5016104;28;20026;-84
2023/04/12 07:03:53;;;;;;;3.28;1.58;;;;;;;;;;5020100;28;20026;-87
2023/04/12 07:06:19;;;;;;;1.90;1.58;;;;;;;;;;5019163;28;20025;-84
2023/04/12 07:08:44;;;;;;;2.20;1.77;;;;;;;;;;5017969;28;20033;-85
2023/04/12 07:11:10;;;;;;;2.28;1.73;;;;;;;;;;5011294;28;20090;-84
2023/04/12 07:13:35;;;;;;;2.13;1.50;;;;;;;;;;5017794;28;20032;-81
2023/04/12 07:16:02;;;;;;;6.38;2.00;;;;;;;;;;5020080;28;20057;-84
2023/04/12 07:18:27;;;;;;;2.92;2.10;;;;;;;;;;5019935;28;20041;-84
2023/04/12 07:20:58;;;;;;;4.00;1.90;;;;;;;;;;5019039;28;20026;-85
2023/04/12 07:23:26;;;;;;;4.73;1.97;;;;;;;;;;5021093;28;20037;-84
2023/04/12 07:25:52;;;;;;;1.90;1.67;;;;;;;;;;5020280;28;20018;-85
2023/04/12 07:33:30;;;;;;;2.35;1.92;;;;;;;;;;5038559;28;20037;-87
2023/04/12 07:35:56;;;;;;;2.53;1.80;;;;;;;;;;5037996;28;20044;-83
2023/04/12 07:38:22;;;;;;;6.05;2.13;;;;;;;;;;5037700;28;20493;-86
2023/04/12 07:40:47;;;;;;;2.00;1.80;;;;;;;;;;5040306;28;20036;-86
2023/04/12 07:43:14;;;;;;;2.47;1.80;;;;;;;;;;5038114;28;20036;-88
2023/04/12 07:45:40;;;;;;;2.70;2.15;;;;;;;;;;5038882;28;20057;-86
2023/04/12 07:48:08;;;;;;;1.90;1.75;;;;;;;;;;5040492;28;20096;-86
2023/04/12 07:50:33;;;;;;;2.30;1.65;;;;;;;;;;5041049;28;20033;-86
2023/04/12 07:53:18;;;;;;;1.88;1.63;;;;;;;;;;5037495;28;20033;-85
2023/04/12 07:55:44;;;;;;;4.35;1.50;;;;;;;;;;5037196;28;20057;-86
2023/04/12 07:58:09;;;;;;;1.80;1.67;;;;;;;;;;5038610;28;20025;-86
2023/04/12 08:00:38;;;;;;;2.10;1.90;;;;;;;;;;5037675;28;20033;-86
2023/04/12 08:03:03;;;;;;;1.88;1.55;;;;;;;;;;5037682;28;20041;-85
2023/04/12 08:05:28;;;;;;;1.95;1.65;;;;;;;;;;5036814;28;20055;-84
2023/04/12 08:07:54;;;;;;;4.32;2.53;;;;;;;;;;5037577;28;20510;-84
2023/04/12 08:10:45;;;;;;;2.78;1.95;;;;;;;;;;5044599;28;20088;-85
2023/04/12 08:13:10;;;;;;;3.53;1.92;;;;;;;;;;5027316;28;20025;-85
2023/04/12 08:15:36;;;;;;;1.60;1.50;;;;;;;;;;5039616;28;20030;-85
2023/04/12 08:18:02;;;;;;;2.53;1.60;;;;;;;;;;5041401;28;20021;-84
2023/04/12 08:20:27;;;;;;;5.20;1.98;;;;;;;;;;5036174;28;20022;-86
2023/04/12 08:22:53;;;;;;;3.58;1.55;;;;;;;;;;5037476;28;20045;-85
2023/04/12 08:25:19;;;;;;;4.18;2.03;;;;;;;;;;5055680;28;20026;-85
2023/04/12 08:27:45;;;;;;;3.33;1.88;;;;;;;;;;5039287;28;20108;-85
2023/04/12 08:30:11;;;;;;;1.77;1.60;;;;;;;;;;5041349;28;20147;-85
2023/04/12 08:32:36;;;;;;;2.17;1.30;;;;;;;;;;5040596;28;20519;-86
2023/04/12 08:35:05;;;;;;;2.35;1.25;;;;;;;;;;5040602;28;20116;-84
2023/04/12 08:37:37;;;;;;;3.58;1.70;;;;;;;;;;5038614;28;20076;-85
2023/04/12 08:40:05;;;;;;;3.83;2.20;;;;;;;;;;5037694;28;20029;-83
2023/04/12 08:42:33;;;;;;;3.03;1.80;;;;;;;;;;5029519;28;20029;-81
2023/04/12 08:45:03;;;;;;;4.03;1.63;;;;;;;;;;5030883;28;20052;-82
2023/04/12 08:47:30;;;;;;;6.07;1.80;;;;;;;;;;5037761;28;20111;-82
2023/04/12 08:49:56;;;;;;;3.95;1.92;;;;;;;;;;5039677;28;20039;-84
2023/04/12 08:52:21;;;;;;;2.90;1.70;;;;;;;;;;5050836;28;20013;-91
2023/04/12 08:54:47;;;;;;;8.18;1.90;;;;;;;;;;5052914;28;20029;-89
2023/04/12 08:57:13;;;;;;;2.13;1.73;;;;;;;;;;5055534;28;20018;-90
2023/04/12 08:59:42;;;;;;;4.60;1.90;;;;;;;;;;5038829;28;20045;-88
2023/04/12 09:02:07;;;;;;;1.45;1.33;;;;;;;;;;5038915;28;20025;-88
2023/04/12 09:04:33;;;;;;;5.57;1.85;;;;;;;;;;5040496;28;20028;-87
2023/04/12 09:07:01;;;;;;;3.63;1.50;;;;;;;;;;5040941;28;20465;-87
2023/04/12 09:09:42;;;;;;;1.58;1.48;;;;;;;;;;5039862;28;20098;-89
2023/04/12 09:12:11;;;;;;;4.40;1.95;;;;;;;;;;5039118;28;20064;-86
2023/04/12 09:14:38;;;;;;;4.40;1.80;;;;;;;;;;5038812;28;20047;-88
2023/04/12 09:17:04;;;;;;;1.73;1.40;;;;;;;;;;5039563;28;20068;-88
2023/04/12 09:19:32;;;;;;;3.22;1.83;;;;;;;;;;5039427;28;20116;-87
2023/04/12 09:21:58;;;;;;;1.58;1.45;;;;;;;;;;5038979;28;20037;-87
2023/04/12 09:24:23;;;;;;;1.92;1.52;;;;;;;;;;5039399;28;20428;-88
2023/04/12 09:27:09;;;;;;;1.73;1.63;;;;;;;;;;5039172;28;20029;-87
2023/04/12 09:29:35;;;;;;;2.45;1.60;;;;;;;;;;5038707;28;20025;-87
2023/04/12 09:32:05;;;;;;;1.92;1.35;;;;;;;;;;5039415;28;20033;-87
2023/04/12 09:34:39;;;;;;;1.30;1.20;;;;;;;;;;5040210;28;20116;-88
2023/04/12 09:37:25;;;;;;;1.70;1.60;;;;;;;;;;5041026;28;20047;-88
2023/04/12 09:40:04;;;;;;;3.17;1.70;;;;;;;;;;5039958;28;20037;-88
2023/04/12 09:42:32;;;;;;;1.80;1.60;;;;;;;;;;5040459;28;20053;-87
2023/04/12 09:44:58;;;;;;;2.85;1.52;;;;;;;;;;5059384;28;20117;-88
2023/04/12 09:47:40;;;;;;;1.98;1.38;;;;;;;;;;5059052;28;20032;-88
2023/04/12 09:50:07;;;;;;;4.30;1.38;;;;;;;;;;5058135;28;20078;-88
2023/04/12 09:52:37;;;;;;;3.15;1.42;;;;;;;;;;5060299;28;20040;-85
2023/04/12 09:55:10;;;;;;;2.85;1.50;;;;;;;;;;5058938;28;20025;-87
2023/04/12 09:57:41;;;;;;;3.88;1.63;;;;;;;;;;5060130;28;20436;-90
2023/04/12 10:00:16;;;;;;;3.35;1.40;;;;;;;;;;5059051;28;20488;-86
2023/04/12 10:02:44;;;;;;;4.05;1.55;;;;;;;;;;5058970;28;20396;-88
2023/04/12 10:05:12;;;;;;;5.68;1.52;;;;;;;;;;5058693;28;20052;-88
2023/04/12 10:07:41;;;;;;;1.42;1.23;;;;;;;;;;5043135;28;20036;-86
2023/04/12 10:10:07;;;;;;;2.28;1.33;;;;;;;;;;5036741;28;20088;-86
2023/04/12 10:12:35;;;;;;;6.65;1.67;;;;;;;;;;5036625;28;20401;-87
2023/04/12 10:15:11;;;;;;;3.22;1.42;;;;;;;;;;5036578;28;20067;-87
2023/04/12 10:17:45;;;;;;;2.05;1.30;;;;;;;;;;5031328;28;20022;-86
2023/04/12 10:20:16;;;;;;;2.50;1.45;;;;;;;;;;5018797;28;20032;-87
2023/04/12 10:22:45;;;;;;;6.10;1.40;;;;;;;;;;5052124;28;20039;-86
2023/04/12 10:25:19;;;;;;;4.32;1.45;;;;;;;;;;5047076;28;20038;-87
2023/04/12 10:27:45;;;;;;;2.80;1.55;;;;;;;;;;5037792;28;20026;-87
2023/04/12 10:30:24;;;;;;;2.22;1.27;;;;;;;;;;5048890;28;20025;-87
2023/04/12 10:33:11;;;;;;;4.43;1.42;;;;;;;;;;5053429;28;20025;-87
2023/04/12 10:35:59;;;;;;;1.73;0.90;;;;;;;;;;5036078;28;20028;-86
2023/04/12 10:38:26;;;;;;;3.22;1.35;;;;;;;;;;5036229;28;20032;-87
2023/04/12 10:41:17;;;;;;;1.48;1.10;;;;;;;;;;5053908;28;20028;-86
2023/04/12 10:43:46;;;;;;;3.88;1.00;;;;;;;;;;5038047;28;20109;-87
2023/04/12 10:46:44;;;;;;;1.40;1.10;;;;;;;;;;5037152;28;20056;-88
2023/04/12 10:49:12;;;;;;;1.75;1.27;;;;;;;;;;5057697;28;20025;-85
2023/04/12 10:52:00;;;;;;;2.05;1.10;;;;;;;;;;5041364;28;20018;-86
2023/04/12 10:54:25;;;;;;;4.22;1.60;;;;;;;;;;5039901;28;20031;-83
2023/04/12 10:56:51;;;;;;;1.35;0.88;;;;;;;;;;5056470;28;20042;-83
2023/04/12 10:59:16;;;;;;;4.40;1.20;;;;;;;;;;5039183;28;20021;-82
2023/04/12 11:02:15;;;;;;;3.17;1.20;;;;;;;;;;5038955;28;20051;-82
2023/04/12 11:05:08;;;;;;;1.65;1.27;;;;;;;;;;5054633;28;20029;-83
2023/04/12 11:07:44;;;;;;;1.67;1.05;;;;;;;;;;5041040;28;20024;-83
2023/04/12 11:10:18;;;;;;;0.80;0.80;;;;;;;;;;5041697;28;20025;-83
2023/04/12 11:13:07;;;;;;;3.10;1.05;;;;;;;;;;5040763;28;20032;-83
2023/04/12 11:15:33;;;;;;;1.00;0.90;;;;;;;;;;5047201;28;20022;-79
2023/04/12 11:17:59;;;;;;;1.40;0.88;;;;;;;;;;5049873;28;20037;-84
2023/04/12 11:20:26;;;;;;;2.08;1.30;;;;;;;;;;5040602;28;20025;-84
2023/04/12 11:22:52;;;;;;;2.03;1.08;;;;;;;;;;5040961;28;20094;-83
2023/04/12 11:25:18;;;;;;;3.95;1.35;;;;;;;;;;5039147;28;20075;-84
2023/04/12 11:27:50;;;;;;;0.60;0.60;;;;;;;;;;5046664;28;20299;-84
2023/04/12 11:30:16;;;;;;;1.38;1.05;;;;;;;;;;5038550;28;20029;-83
2023/04/12 11:32:46;;;;;;;1.02;0.65;;;;;;;;;;5037201;28;20412;-84
2023/04/12 11:35:14;;;;;;;2.58;1.00;;;;;;;;;;5037021;28;20029;-83
2023/04/12 11:37:39;;;;;;;2.22;0.90;;;;;;;;;;5036714;28;20049;-84
2023/04/12 11:40:05;;;;;;;2.60;1.02;;;;;;;;;;5035704;28;20021;-84
2023/04/12 11:42:31;;;;;;;1.70;0.90;;;;;;;;;;5034545;28;20034;-84
2023/04/12 11:44:57;;;;;;;1.25;0.85;;;;;;;;;;5037231;28;20620;-84
2023/04/12 11:47:23;;;;;;;3.90;1.33;;;;;;;;;;5037429;28;20032;-84
2023/04/12 11:49:52;;;;;;;0.95;0.80;;;;;;;;;;5035557;28;20044;-85
2023/04/12 11:52:19;;;;;;;1.23;0.60;;;;;;;;;;5034602;28;20054;-84
2023/04/12 11:54:49;;;;;;;2.45;0.95;;;;;;;;;;5053180;28;20025;-83
2023/04/12 11:57:17;;;;;;;0.63;0.63;;;;;;;;;;5038355;28;20022;-84
2023/04/12 12:03:48;;;;;;;3.87;0.83;;;;;;;;;;5038819;28;20032;-84
2023/04/12 12:06:14;;;;;;;0.75;0.75;;;;;;;;;;5037695;28;20250;-84
2023/04/12 12:08:39;;;;;;;0.70;0.70;;;;;;;;;;5057860;28;20037;-84
2023/04/12 12:11:05;;;;;;;0.57;0.57;;;;;;;;;;5038990;28;20034;-84
2023/04/12 12:13:48;;;;;;;1.35;1.00;;;;;;;;;;5038139;28;20032;-84
2023/04/12 12:16:14;;;;;;;2.42;1.05;;;;;;;;;;5038573;28;20025;-83
2023/04/12 12:18:40;;;;;;;2.15;1.00;;;;;;;;;;5039929;28;20060;-83
2023/04/12 12:24:27;;;;;;;0.70;0.70;;;;;;;;;;5052767;28;20068;-84
2023/04/12 12:26:53;;;;;;;1.17;0.90;;;;;;;;;;5051284;28;20254;-84
2023/04/12 12:29:19;;;;;;;1.80;0.70;;;;;;;;;;5049823;28;20060;-83
2023/04/12 12:31:47;;;;;;;0.57;0.57;;;;;;;;;;5038759;28;20118;-83
2023/04/12 12:34:13;;;;;;;0.60;0.60;;;;;;;;;;5038813;28;20478;-82
2023/04/12 12:36:38;;;;;;;1.42;0.82;;;;;;;;;;5040046;28;20029;-83
2023/04/12 12:39:11;;;;;;;1.08;0.95;;;;;;;;;;5043793;28;20039;-83
2023/04/12 12:41:37;;;;;;;2.50;0.77;;;;;;;;;;5040669;28;20021;-84
2023/04/12 12:44:04;;;;;;;2.58;0.93;;;;;;;;;;5039731;28;20021;-82
2023/04/12 12:46:29;;;;;;;2.25;1.08;;;;;;;;;;5054767;28;20021;-84
2023/04/12 12:48:55;;;;;;;0.82;0.60;;;;;;;;;;5041402;28;20547;-84
2023/04/12 12:51:23;;;;;;;2.75;0.90;;;;;;;;;;5041955;28;20034;-82
2023/04/12 12:53:48;;;;;;;1.73;1.00;;;;;;;;;;5042033;28;20026;-83
2023/04/12 12:56:14;;;;;;;1.02;0.55;;;;;;;;;;5059992;28;20113;-84
2023/04/12 12:58:40;;;;;;;0.65;0.65;;;;;;;;;;5044027;28;20025;-85
2023/04/12 13:01:06;;;;;;;0.90;0.55;;;;;;;;;;5042036;28;20029;-84
2023/04/12 13:03:32;;;;;;;0.60;0.60;;;;;;;;;;5041696;28;20044;-84
2023/04/12 13:05:58;;;;;;;1.15;0.85;;;;;;;;;;5041655;28;20029;-84
2023/04/12 13:08:23;;;;;;;0.65;0.52;;;;;;;;;;5041488;28;20017;-83
2023/04/12 13:10:49;;;;;;;0.60;0.60;;;;;;;;;;5041997;28;20559;-84
2023/04/12 13:13:15;;;;;;;1.67;0.88;;;;;;;;;;5041595;28;20030;-84
2023/04/12 13:15:40;;;;;;;1.95;0.98;;;;;;;;;;5041984;28;20037;-84
2023/04/12 13:18:06;;;;;;;0.90;0.50;;;;;;;;;;5042352;28;20029;-84
2023/04/12 13:20:32;;;;;;;1.38;0.52;;;;;;;;;;5041748;28;20032;-83
2023/04/12 13:22:57;;;;;;;2.08;0.82;;;;;;;;;;5037918;28;20536;-84
2023/04/12 13:25:22;;;;;;;0.80;0.80;;;;;;;;;;5038813;28;20108;-83
2023/04/12 13:27:48;;;;;;;1.13;0.60;;;;;;;;;;5039684;28;20052;-83
2023/04/12 13:30:13;;;;;;;2.17;0.75;;;;;;;;;;5064608;28;20013;-83
2023/04/12 13:32:39;;;;;;;1.30;0.68;;;;;;;;;;5055515;28;20029;-83
2023/04/12 13:35:05;;;;;;;1.42;0.75;;;;;;;;;;5053920;28;20061;-85
2023/04/12 13:37:30;;;;;;;3.08;0.80;;;;;;;;;;5043420;28;20030;-85
2023/04/12 13:39:56;;;;;;;0.77;0.70;;;;;;;;;;5039966;28;20029;-84
2023/04/12 13:42:22;;;;;;;1.13;1.00;;;;;;;;;;5050674;28;20101;-84
2023/04/12 13:44:48;;;;;;;1.25;0.77;;;;;;;;;;5058601;28;20056;-85
2023/04/12 13:47:14;;;;;;;1.58;0.88;;;;;;;;;;5041086;28;20017;-85
2023/04/12 13:49:39;;;;;;;0.82;0.70;;;;;;;;;;5041110;28;20032;-84
2023/04/12 13:52:06;;;;;;;0.60;0.60;;;;;;;;;;5042988;28;20025;-84
2023/04/12 13:54:31;;;;;;;0.52;0.52;;;;;;;;;;5039755;28;20033;-83
2023/04/12 13:56:57;;;;;;;1.17;0.77;;;;;;;;;;5041421;28;20024;-84
2023/04/12 13:59:23;;;;;;;0.90;0.90;;;;;;;;;;5041201;28;20507;-84
2023/04/12 14:01:48;;;;;;;1.77;0.57;;;;;;;;;;5043071;28;20033;-85
2023/04/12 14:04:13;;;;;;;0.60;0.60;;;;;;;;;;5041714;28;20049;-84
2023/04/12 14:06:39;;;;;;;0.50;0.50;;;;;;;;;;5039840;28;20057;-85
2023/04/12 14:09:04;;;;;;;2.38;0.75;;;;;;;;;;5040307;28;20030;-85
2023/04/12 14:11:30;;;;;;;2.10;0.68;;;;;;;;;;5041532;28;20025;-85
2023/04/12 14:13:55;;;;;;;0.77;0.60;;;;;;;;;;5041650;28;20029;-84
2023/04/12 14:16:20;;;;;;;1.27;0.50;;;;;;;;;;5042036;28;20033;-84
2023/04/12 14:18:46;;;;;;;0.50;0.50;;;;;;;;;;5040235;28;20029;-84
2023/04/12 14:21:11;;;;;;;3.45;0.75;;;;;;;;;;5040898;28;20036;-84
2023/04/12 14:23:36;;;;;;;0.80;0.80;;;;;;;;;;5041960;28;20021;-84
2023/04/12 14:26:01;;;;;;;1.25;0.70;;;;;;;;;;5040567;28;20025;-84
2023/04/12 14:28:30;;;;;;;0.47;0.47;;;;;;;;;;5039530;28;20090;-84
2023/04/12 14:30:56;;;;;;;1.13;0.57;;;;;;;;;;5040676;28;20033;-83
2023/04/12 14:33:23;;;;;;;2.38;0.77;;;;;;;;;;5040185;28;20033;-83
2023/04/12 14:35:49;;;;;;;3.42;0.80;;;;;;;;;;5040646;28;20029;-84
2023/04/12 14:38:14;;;;;;;0.82;0.50;;;;;;;;;;5036976;28;20112;-83
2023/04/12 14:40:39;;;;;;;0.30;0.30;;;;;;;;;;5035650;28;20641;-84
2023/04/12 14:43:05;;;;;;;0.63;0.60;;;;;;;;;;5034095;28;20064;-84
2023/04/12 14:45:30;;;;;;;0.60;0.60;;;;;;;;;;5037223;28;20036;-83
2023/04/12 14:47:55;;;;;;;1.23;0.60;;;;;;;;;;5035455;28;20033;-84
2023/04/12 14:50:21;;;;;;;1.38;1.13;;;;;;;;;;5036962;28;20033;-84
2023/04/12 14:52:47;;;;;;;0.80;0.73;;;;;;;;;;5031159;28;20487;-83
2023/04/12 14:55:13;;;;;;;0.80;0.63;;;;;;;;;;5055427;28;20516;-84
2023/04/12 14:57:40;;;;;;;0.80;0.70;;;;;;;;;;5040169;28;20021;-83
2023/04/12 15:00:12;;;;;;;0.82;0.60;;;;;;;;;;5040676;28;20551;-84
2023/04/12 15:02:37;;;;;;;0.60;0.60;;;;;;;;;;5036640;28;20028;-83
2023/04/12 15:05:06;;;;;;;1.00;0.68;;;;;;;;;;5035235;28;20021;-83
2023/04/12 15:07:31;;;;;;;0.52;0.52;;;;;;;;;;5033923;28;20017;-84
2023/04/12 15:09:57;;;;;;;0.60;0.57;;;;;;;;;;5035307;28;20032;-84
2023/04/12 15:12:22;;;;;;;0.70;0.70;;;;;;;;;;5035701;28;20025;-85